createdAt,value
2017-03-04T00:04:09.529Z,0
2017-03-04T00:09:06.889Z,0
2017-03-04T00:14:03.594Z,0
2017-03-04T00:19:00.716Z,0
2017-03-04T00:23:57.167Z,0
2017-03-04T00:28:53.768Z,0
2017-03-04T00:33:50.476Z,0
2017-03-04T00:38:47.754Z,0
2017-03-04T00:43:45.009Z,0
2017-03-04T00:48:41.976Z,0
2017-03-04T00:53:38.687Z,0
2017-03-04T00:58:35.474Z,0
2017-03-04T01:03:32.088Z,0
2017-03-04T01:08:28.697Z,0
2017-03-04T01:13:25.368Z,0
2017-03-04T01:18:22.229Z,0
2017-03-04T01:23:19.369Z,0
2017-03-04T01:28:15.903Z,0
2017-03-04T01:33:12.349Z,0
2017-03-04T01:38:08.969Z,0
2017-03-04T01:43:06.071Z,0
2017-03-04T01:48:02.638Z,0
2017-03-04T01:53:00.450Z,0
2017-03-04T01:57:56.940Z,0
2017-03-04T02:02:53.901Z,0
2017-03-04T02:07:50.387Z,0
2017-03-04T02:12:46.652Z,0
2017-03-04T02:17:43.285Z,0
2017-03-04T02:22:40.264Z,0
2017-03-04T02:27:36.484Z,0
2017-03-04T02:32:32.572Z,0
2017-03-04T02:37:29.161Z,0
2017-03-04T02:42:25.427Z,0
2017-03-04T02:47:21.991Z,0
2017-03-04T02:52:18.834Z,0
2017-03-04T02:57:15.610Z,0
2017-03-04T03:02:13.108Z,0
2017-03-04T03:07:09.819Z,0
2017-03-04T03:12:06.679Z,0
2017-03-04T03:17:03.216Z,0
2017-03-04T03:22:00.907Z,0
2017-03-04T03:26:57.542Z,0
2017-03-04T03:31:55.066Z,0
2017-03-04T03:36:51.790Z,0
2017-03-04T03:41:49.355Z,0
2017-03-04T03:46:45.094Z,0
2017-03-04T03:51:41.674Z,0
2017-03-04T03:56:38.314Z,0
2017-03-04T04:01:35.061Z,0
2017-03-04T04:06:31.475Z,0
2017-03-04T04:11:29.275Z,0
2017-03-04T04:16:25.763Z,0
2017-03-04T04:21:22.393Z,0
2017-03-04T04:26:19.437Z,0
2017-03-04T04:31:16.009Z,0
2017-03-04T04:36:12.787Z,0
2017-03-04T04:41:10.340Z,0
2017-03-04T04:46:06.787Z,0
2017-03-04T04:51:03.481Z,0
2017-03-04T04:56:00.237Z,0
2017-03-04T05:00:57.200Z,0
2017-03-04T05:05:53.576Z,0
2017-03-04T05:10:50.356Z,0
2017-03-04T05:15:47.243Z,0
2017-03-04T05:20:43.979Z,0
2017-03-04T05:25:40.739Z,0
2017-03-04T05:30:37.578Z,0
2017-03-04T05:35:34.419Z,0
2017-03-04T05:40:30.988Z,0
2017-03-04T05:45:27.417Z,0
2017-03-04T05:50:24.020Z,0
2017-03-04T05:55:21.020Z,0
2017-03-04T06:00:18.441Z,0
2017-03-04T06:05:14.948Z,0
2017-03-04T06:10:11.386Z,0
2017-03-04T06:15:08.017Z,5
2017-03-04T06:20:05.653Z,10
2017-03-04T06:25:02.329Z,10
2017-03-04T06:29:58.981Z,15
2017-03-04T06:34:55.755Z,20
2017-03-04T06:39:52.430Z,30
2017-03-04T06:44:49.312Z,35
2017-03-04T06:49:46.397Z,45
2017-03-04T06:54:43.069Z,45
2017-03-04T06:59:39.416Z,45
2017-03-04T07:04:36.479Z,50
2017-03-04T07:09:33.501Z,55
2017-03-04T07:14:30.300Z,60
2017-03-04T07:19:27.037Z,70
2017-03-04T07:24:24.120Z,60
2017-03-04T07:29:20.878Z,65
2017-03-04T07:34:18.994Z,70
2017-03-04T07:39:15.647Z,80
2017-03-04T07:44:12.262Z,85
2017-03-04T07:49:09.045Z,90
2017-03-04T07:54:06.398Z,100
2017-03-04T07:59:03.565Z,115
2017-03-04T08:04:00.627Z,145
2017-03-04T08:08:57.691Z,170
2017-03-04T08:13:54.891Z,180
2017-03-04T08:18:52.108Z,190
2017-03-04T08:23:50.011Z,195
2017-03-04T08:28:47.167Z,200
2017-03-04T08:33:44.753Z,190
2017-03-04T08:38:41.699Z,175
2017-03-04T08:43:39.187Z,175
2017-03-04T08:48:35.634Z,180
2017-03-04T08:53:32.727Z,190
2017-03-04T08:58:29.935Z,195
2017-03-04T09:03:26.500Z,205
2017-03-04T09:08:23.561Z,215
2017-03-04T09:13:20.211Z,225
2017-03-04T09:18:18.585Z,215
2017-03-04T09:23:14.770Z,200
2017-03-04T09:28:11.876Z,205
2017-03-04T09:33:08.796Z,210
2017-03-04T09:38:06.070Z,225
2017-03-04T09:43:03.334Z,245
2017-03-04T09:48:00.397Z,260
2017-03-04T09:52:57.517Z,270
2017-03-04T09:57:54.899Z,285
2017-03-04T10:02:51.845Z,330
2017-03-04T10:07:48.687Z,355
2017-03-04T10:12:45.613Z,310
2017-03-04T10:17:42.470Z,285
2017-03-04T10:22:39.333Z,290
2017-03-04T10:27:36.314Z,300
2017-03-04T10:32:33.136Z,300
2017-03-04T10:37:30.476Z,300
2017-03-04T10:42:27.532Z,305
2017-03-04T10:47:24.124Z,310
2017-03-04T10:52:20.559Z,270
2017-03-04T10:57:16.796Z,285
2017-03-04T11:02:13.662Z,365
2017-03-04T11:07:10.813Z,335
2017-03-04T11:12:07.402Z,300
2017-03-04T11:17:04.243Z,290
2017-03-04T11:22:01.203Z,270
2017-03-04T11:26:57.605Z,250
2017-03-04T11:31:54.263Z,235
2017-03-04T11:36:50.800Z,245
2017-03-04T11:41:47.327Z,240
2017-03-04T11:46:45.151Z,280
2017-03-04T11:51:41.657Z,270
2017-03-04T11:56:41.366Z,355
2017-03-04T12:01:37.906Z,380
2017-03-04T12:06:35.079Z,370
2017-03-04T12:11:31.915Z,360
2017-03-04T12:16:28.625Z,360
2017-03-04T12:21:26.672Z,445
2017-03-04T12:26:23.683Z,670
2017-03-04T12:31:21.214Z,490
2017-03-04T12:36:18.708Z,475
2017-03-04T12:41:15.362Z,680
2017-03-04T12:46:12.504Z,430
2017-03-04T12:51:09.023Z,395
2017-03-04T12:56:06.935Z,475
2017-03-04T13:01:04.808Z,375
2017-03-04T13:06:01.755Z,315
2017-03-04T13:10:58.072Z,255
2017-03-04T13:15:54.668Z,290
2017-03-04T13:20:51.203Z,295
2017-03-04T13:25:47.912Z,255
2017-03-04T13:30:44.664Z,225
2017-03-04T13:35:42.736Z,210
2017-03-04T13:40:39.034Z,210
2017-03-04T13:45:35.722Z,225
2017-03-04T13:50:32.656Z,240
2017-03-04T13:55:30.440Z,235
2017-03-04T14:00:27.277Z,235
2017-03-04T14:05:25.062Z,275
2017-03-04T14:10:21.416Z,255
2017-03-04T14:15:19.667Z,205
2017-03-04T14:20:16.172Z,170
2017-03-04T14:25:12.963Z,150
2017-03-04T14:30:09.439Z,155
2017-03-04T14:35:05.925Z,150
2017-03-04T14:40:02.607Z,140
2017-03-04T14:44:59.272Z,140
2017-03-04T14:49:56.369Z,155
2017-03-04T14:54:52.622Z,150
2017-03-04T14:59:49.237Z,135
2017-03-04T15:04:45.289Z,125
2017-03-04T15:09:41.763Z,120
2017-03-04T15:14:39.602Z,115
2017-03-04T15:19:35.689Z,115
2017-03-04T15:24:31.918Z,100
2017-03-04T15:29:28.314Z,100
2017-03-04T15:34:24.616Z,90
2017-03-04T15:39:21.195Z,90
2017-03-04T15:44:17.911Z,85
2017-03-04T15:49:15.496Z,75
2017-03-04T15:54:11.620Z,75
2017-03-04T15:59:09.268Z,65
2017-03-04T16:04:05.613Z,65
2017-03-04T16:09:01.894Z,65
2017-03-04T16:13:59.330Z,55
2017-03-04T16:18:56.148Z,50
2017-03-04T16:23:53.885Z,40
2017-03-04T16:28:50.258Z,35
2017-03-04T16:33:47.206Z,30
2017-03-04T16:38:43.653Z,25
2017-03-04T16:43:40.630Z,25
2017-03-04T16:48:37.357Z,20
2017-03-04T16:53:34.244Z,15
2017-03-04T16:58:30.711Z,10
2017-03-04T17:03:27.438Z,5
2017-03-04T17:08:26.728Z,5
2017-03-04T17:13:24.087Z,0
2017-03-04T17:18:20.281Z,0
2017-03-04T17:23:17.540Z,0
2017-03-04T17:28:15.292Z,0
2017-03-04T17:33:12.427Z,0
2017-03-04T17:38:08.911Z,0
2017-03-04T17:43:05.367Z,0
2017-03-04T17:48:02.129Z,0
2017-03-04T17:52:59.297Z,0
2017-03-04T17:57:56.151Z,0
2017-03-04T18:02:52.705Z,0
2017-03-04T18:07:49.335Z,0
2017-03-04T18:12:46.238Z,0
2017-03-04T18:17:44.222Z,0
2017-03-04T18:22:40.649Z,0
2017-03-04T18:27:37.413Z,0
2017-03-04T18:32:35.450Z,0
2017-03-04T18:37:32.470Z,0
2017-03-04T18:42:29.058Z,0
2017-03-04T18:47:25.768Z,0
2017-03-04T18:52:22.881Z,0
2017-03-04T18:57:19.647Z,0
2017-03-04T19:02:16.955Z,0
2017-03-04T19:07:14.151Z,0
2017-03-04T19:12:10.692Z,0
2017-03-04T19:17:08.190Z,0
2017-03-04T19:22:05.238Z,0
2017-03-04T19:27:01.975Z,0
2017-03-04T19:31:58.825Z,0
2017-03-04T19:36:58.291Z,0
2017-03-04T19:41:54.917Z,0
2017-03-04T19:46:52.282Z,0
2017-03-04T19:51:49.104Z,0
2017-03-04T19:56:45.763Z,0
2017-03-04T20:01:42.844Z,0
2017-03-04T20:06:40.080Z,0
2017-03-04T20:11:36.560Z,0
2017-03-04T20:16:33.305Z,0
2017-03-04T20:21:32.219Z,0
2017-03-04T20:26:31.744Z,0
2017-03-04T20:31:27.993Z,0
2017-03-04T20:36:24.426Z,0
2017-03-04T20:41:21.016Z,0
2017-03-04T20:46:17.368Z,0
2017-03-04T20:51:13.971Z,0
2017-03-04T20:56:09.951Z,0
2017-03-04T21:01:06.465Z,0
2017-03-04T21:06:02.937Z,0
2017-03-04T21:10:59.011Z,0
2017-03-04T21:15:55.849Z,0
2017-03-04T21:20:52.048Z,0
2017-03-04T21:25:49.485Z,0
2017-03-04T21:30:45.846Z,0
2017-03-04T21:35:42.461Z,0
2017-03-04T21:40:38.784Z,0
2017-03-04T21:45:35.309Z,0
2017-03-04T21:50:31.970Z,0
2017-03-04T21:55:28.258Z,0
2017-03-04T22:00:24.810Z,0
2017-03-04T22:05:22.500Z,0
2017-03-04T22:10:18.871Z,0
2017-03-04T22:15:15.774Z,0
2017-03-04T22:20:12.889Z,0
2017-03-04T22:25:10.787Z,0
2017-03-04T22:30:06.788Z,0
2017-03-04T22:35:03.303Z,0
2017-03-04T22:39:59.725Z,0
2017-03-04T22:44:56.808Z,0
2017-03-04T22:49:53.373Z,0
2017-03-04T22:54:50.004Z,0
2017-03-04T22:59:46.184Z,0
2017-03-04T23:04:42.925Z,0
2017-03-04T23:09:39.397Z,0
2017-03-04T23:14:35.501Z,0
2017-03-04T23:19:32.424Z,0
2017-03-04T23:24:29.375Z,0
2017-03-04T23:29:25.801Z,0
2017-03-04T23:34:22.105Z,0
2017-03-04T23:39:18.622Z,0
2017-03-04T23:44:15.051Z,0
2017-03-04T23:49:11.586Z,0
2017-03-04T23:54:07.997Z,0
2017-03-04T23:59:04.647Z,0
